sensor_id;sensor_type;location;lat;lon;timestamp;pressure;altitude;pressure_sealevel;temperature;humidity
7662;BME280;30314;48.184;11.510;2023-09-08T00:02:25;96222.88;;;14.37;100.00
7662;BME280;30314;48.184;11.510;2023-09-08T00:04:53;96218.94;;;14.35;100.00
7662;BME280;30314;48.184;11.510;2023-09-08T00:07:20;96228.00;;;14.34;100.00
7662;BME280;30314;48.184;11.510;2023-09-08T00:09:47;96222.22;;;14.32;100.00
7662;BME280;30314;48.184;11.510;2023-09-08T00:12:13;96221.72;;;14.30;100.00
7662;BME280;30314;48.184;11.510;2023-09-08T00:14:40;96219.38;;;14.28;100.00
7662;BME280;30314;48.184;11.510;2023-09-08T00:17:06;96229.50;;;14.26;100.00
7662;BME280;30314;48.184;11.510;2023-09-08T00:19:33;96223.41;;;14.26;100.00
7662;BME280;30314;48.184;11.510;2023-09-08T00:22:00;96228.72;;;14.26;100.00
7662;BME280;30314;48.184;11.510;2023-09-08T00:24:27;96225.56;;;14.23;100.00
7662;BME280;30314;48.184;11.510;2023-09-08T00:26:53;96221.63;;;14.21;100.00
7662;BME280;30314;48.184;11.510;2023-09-08T00:29:20;96213.50;;;14.17;100.00
7662;BME280;30314;48.184;11.510;2023-09-08T00:31:47;96215.38;;;14.17;100.00
7662;BME280;30314;48.184;11.510;2023-09-08T00:34:13;96208.00;;;14.14;100.00
7662;BME280;30314;48.184;11.510;2023-09-08T00:36:40;96202.94;;;14.12;100.00
7662;BME280;30314;48.184;11.510;2023-09-08T00:39:06;96203.56;;;14.09;100.00
7662;BME280;30314;48.184;11.510;2023-09-08T00:41:33;96202.47;;;14.10;100.00
7662;BME280;30314;48.184;11.510;2023-09-08T00:44:00;96205.13;;;14.10;100.00
7662;BME280;30314;48.184;11.510;2023-09-08T00:46:27;96210.25;;;14.06;100.00
7662;BME280;30314;48.184;11.510;2023-09-08T00:48:54;96208.19;;;14.03;100.00
7662;BME280;30314;48.184;11.510;2023-09-08T00:51:21;96204.38;;;13.95;100.00
7662;BME280;30314;48.184;11.510;2023-09-08T00:53:49;96206.63;;;14.02;100.00
7662;BME280;30314;48.184;11.510;2023-09-08T00:56:16;96212.53;;;13.99;100.00
7662;BME280;30314;48.184;11.510;2023-09-08T00:58:43;96211.53;;;13.95;100.00
7662;BME280;30314;48.184;11.510;2023-09-08T01:01:10;96206.34;;;13.90;100.00
7662;BME280;30314;48.184;11.510;2023-09-08T01:03:37;96212.25;;;13.87;100.00
7662;BME280;30314;48.184;11.510;2023-09-08T01:06:04;96213.63;;;13.84;100.00
7662;BME280;30314;48.184;11.510;2023-09-08T01:08:31;96210.50;;;13.82;100.00
7662;BME280;30314;48.184;11.510;2023-09-08T01:10:59;96216.88;;;13.81;100.00
7662;BME280;30314;48.184;11.510;2023-09-08T01:13:25;96207.16;;;13.76;100.00
7662;BME280;30314;48.184;11.510;2023-09-08T01:15:52;96206.69;;;13.74;100.00
7662;BME280;30314;48.184;11.510;2023-09-08T01:18:19;96214.16;;;13.72;100.00
7662;BME280;30314;48.184;11.510;2023-09-08T01:21:05;96213.06;;;13.73;100.00
7662;BME280;30314;48.184;11.510;2023-09-08T01:26:41;96212.47;;;13.62;100.00
7662;BME280;30314;48.184;11.510;2023-09-08T01:29:12;96209.34;;;13.60;100.00
7662;BME280;30314;48.184;11.510;2023-09-08T01:31:39;96209.34;;;13.60;100.00
7662;BME280;30314;48.184;11.510;2023-09-08T01:34:07;96207.28;;;13.57;100.00
7662;BME280;30314;48.184;11.510;2023-09-08T01:36:36;96207.56;;;13.56;100.00
7662;BME280;30314;48.184;11.510;2023-09-08T01:39:03;96208.66;;;13.55;100.00
7662;BME280;30314;48.184;11.510;2023-09-08T01:41:30;96207.06;;;13.53;100.00
7662;BME280;30314;48.184;11.510;2023-09-08T01:44:00;96202.09;;;13.52;100.00
7662;BME280;30314;48.184;11.510;2023-09-08T01:46:26;96205.03;;;13.50;100.00
7662;BME280;30314;48.184;11.510;2023-09-08T01:48:53;96203.44;;;13.49;100.00
7662;BME280;30314;48.184;11.510;2023-09-08T01:51:19;96197.34;;;13.49;100.00
7662;BME280;30314;48.184;11.510;2023-09-08T01:53:46;96197.94;;;13.46;100.00
7662;BME280;30314;48.184;11.510;2023-09-08T01:56:13;96199.13;;;13.39;100.00
7662;BME280;30314;48.184;11.510;2023-09-08T01:58:39;96199.13;;;13.39;100.00
7662;BME280;30314;48.184;11.510;2023-09-08T02:01:06;96200.72;;;13.41;100.00
7662;BME280;30314;48.184;11.510;2023-09-08T02:03:34;96195.78;;;13.34;100.00
7662;BME280;30314;48.184;11.510;2023-09-08T02:06:00;96193.63;;;13.36;100.00
7662;BME280;30314;48.184;11.510;2023-09-08T02:08:27;96196.78;;;13.38;100.00
7662;BME280;30314;48.184;11.510;2023-09-08T02:10:53;96192.06;;;13.35;100.00
7662;BME280;30314;48.184;11.510;2023-09-08T02:13:21;96191.09;;;13.31;100.00
7662;BME280;30314;48.184;11.510;2023-09-08T02:15:48;96189.50;;;13.30;100.00
7662;BME280;30314;48.184;11.510;2023-09-08T02:18:15;96196.38;;;13.31;100.00
7662;BME280;30314;48.184;11.510;2023-09-08T02:20:41;96190.09;;;13.27;100.00
7662;BME280;30314;48.184;11.510;2023-09-08T02:23:08;96195.38;;;13.27;100.00
7662;BME280;30314;48.184;11.510;2023-09-08T02:25:35;96204.44;;;13.25;100.00
7662;BME280;30314;48.184;11.510;2023-09-08T02:28:01;96200.19;;;13.24;100.00
7662;BME280;30314;48.184;11.510;2023-09-08T02:30:28;96196.25;;;13.22;100.00
7662;BME280;30314;48.184;11.510;2023-09-08T02:32:56;96190.47;;;13.20;100.00
7662;BME280;30314;48.184;11.510;2023-09-08T02:35:23;96192.44;;;13.14;100.00
7662;BME280;30314;48.184;11.510;2023-09-08T02:37:53;96193.81;;;13.12;100.00
7662;BME280;30314;48.184;11.510;2023-09-08T02:40:20;96187.50;;;13.07;100.00
7662;BME280;30314;48.184;11.510;2023-09-08T02:42:48;96189.69;;;13.05;100.00
7662;BME280;30314;48.184;11.510;2023-09-08T02:45:15;96187.81;;;13.06;100.00
7662;BME280;30314;48.184;11.510;2023-09-08T02:47:42;96188.91;;;13.05;100.00
7662;BME280;30314;48.184;11.510;2023-09-08T02:50:09;96186.81;;;13.02;100.00
7662;BME280;30314;48.184;11.510;2023-09-08T02:52:36;96182.59;;;13.01;100.00
7662;BME280;30314;48.184;11.510;2023-09-08T02:55:02;96181.63;;;12.96;100.00
7662;BME280;30314;48.184;11.510;2023-09-08T02:57:29;96186.13;;;12.96;100.00
7662;BME280;30314;48.184;11.510;2023-09-08T02:59:56;96186.22;;;12.91;100.00
7662;BME280;30314;48.184;11.510;2023-09-08T03:02:26;96187.69;;;12.97;100.00
7662;BME280;30314;48.184;11.510;2023-09-08T03:04:54;96182.50;;;12.92;100.00
7662;BME280;30314;48.184;11.510;2023-09-08T03:07:21;96188.06;;;12.90;100.00
7662;BME280;30314;48.184;11.510;2023-09-08T03:09:47;96196.81;;;12.91;100.00
7662;BME280;30314;48.184;11.510;2023-09-08T03:12:14;96195.03;;;12.86;100.00
7662;BME280;30314;48.184;11.510;2023-09-08T03:14:41;96190.63;;;12.81;100.00
7662;BME280;30314;48.184;11.510;2023-09-08T03:17:07;96186.88;;;12.82;100.00
7662;BME280;30314;48.184;11.510;2023-09-08T03:19:34;96188.84;;;12.77;100.00
7662;BME280;30314;48.184;11.510;2023-09-08T03:22:01;96173.03;;;12.72;100.00
7662;BME280;30314;48.184;11.510;2023-09-08T03:24:27;96175.69;;;12.72;100.00
7662;BME280;30314;48.184;11.510;2023-09-08T03:26:54;96179.91;;;12.73;100.00
7662;BME280;30314;48.184;11.510;2023-09-08T03:29:21;96182.56;;;12.73;100.00
7662;BME280;30314;48.184;11.510;2023-09-08T03:31:48;96183.34;;;12.73;100.00
7662;BME280;30314;48.184;11.510;2023-09-08T03:34:15;96189.97;;;12.71;100.00
7662;BME280;30314;48.184;11.510;2023-09-08T03:36:42;96190.56;;;12.67;100.00
7662;BME280;30314;48.184;11.510;2023-09-08T03:39:09;96191.16;;;12.64;100.00
7662;BME280;30314;48.184;11.510;2023-09-08T03:41:37;96184.84;;;12.60;100.00
7662;BME280;30314;48.184;11.510;2023-09-08T03:44:03;96194.94;;;12.58;100.00
7662;BME280;30314;48.184;11.510;2023-09-08T03:46:30;96185.44;;;12.57;100.00
7662;BME280;30314;48.184;11.510;2023-09-08T03:48:57;96183.44;;;12.49;100.00
7662;BME280;30314;48.184;11.510;2023-09-08T03:51:27;96194.72;;;12.54;100.00
7662;BME280;30314;48.184;11.510;2023-09-08T03:53:54;96185.59;;;12.47;100.00
7662;BME280;30314;48.184;11.510;2023-09-08T03:56:21;96190.88;;;12.47;100.00
7662;BME280;30314;48.184;11.510;2023-09-08T03:58:48;96181.09;;;12.47;100.00
7662;BME280;30314;48.184;11.510;2023-09-08T04:01:15;96185.91;;;12.45;100.00
7662;BME280;30314;48.184;11.510;2023-09-08T04:03:42;96185.97;;;12.40;100.00
7662;BME280;30314;48.184;11.510;2023-09-08T04:06:10;96195.69;;;12.45;100.00
7662;BME280;30314;48.184;11.510;2023-09-08T04:08:37;96197.34;;;12.40;100.00
7662;BME280;30314;48.184;11.510;2023-09-08T04:11:04;96183.09;;;12.36;100.00
7662;BME280;30314;48.184;11.510;2023-09-08T04:13:31;96204.22;;;12.42;100.00
7662;BME280;30314;48.184;11.510;2023-09-08T04:15:59;96196.78;;;12.44;100.00
7662;BME280;30314;48.184;11.510;2023-09-08T04:18:26;96200.13;;;12.49;100.00
7662;BME280;30314;48.184;11.510;2023-09-08T04:20:52;96191.84;;;12.37;100.00
7662;BME280;30314;48.184;11.510;2023-09-08T04:23:19;96203.72;;;12.39;100.00
7662;BME280;30314;48.184;11.510;2023-09-08T04:25:46;96204.59;;;12.35;100.00
7662;BME280;30314;48.184;11.510;2023-09-08T04:28:12;96183.28;;;12.26;100.00
7662;BME280;30314;48.184;11.510;2023-09-08T04:30:39;96198.00;;;12.32;100.00
7662;BME280;30314;48.184;11.510;2023-09-08T04:33:06;96156.00;;;12.06;100.00
7662;BME280;30314;48.184;11.510;2023-09-08T04:35:33;96174.19;;;12.13;100.00
7662;BME280;30314;48.184;11.510;2023-09-08T04:37:59;96187.28;;;12.23;100.00
7662;BME280;30314;48.184;11.510;2023-09-08T04:40:30;96186.28;;;12.19;100.00
7662;BME280;30314;48.184;11.510;2023-09-08T04:42:56;96186.56;;;12.18;100.00
7662;BME280;30314;48.184;11.510;2023-09-08T04:45:23;96190.28;;;12.17;100.00
7662;BME280;30314;48.184;11.510;2023-09-08T04:47:50;96194.50;;;12.18;100.00
7662;BME280;30314;48.184;11.510;2023-09-08T04:50:19;96204.50;;;12.21;100.00
7662;BME280;30314;48.184;11.510;2023-09-08T04:52:45;96198.50;;;12.15;100.00
7662;BME280;30314;48.184;11.510;2023-09-08T04:55:12;96194.50;;;12.18;100.00
7662;BME280;30314;48.184;11.510;2023-09-08T04:57:39;96203.75;;;12.20;100.00
7662;BME280;30314;48.184;11.510;2023-09-08T05:00:07;96196.34;;;12.17;100.00
7662;BME280;30314;48.184;11.510;2023-09-08T05:02:34;96191.94;;;12.12;100.00
7662;BME280;30314;48.184;11.510;2023-09-08T05:05:02;96203.75;;;12.20;100.00
7662;BME280;30314;48.184;11.510;2023-09-08T05:07:29;96202.16;;;12.19;100.00
7662;BME280;30314;48.184;11.510;2023-09-08T05:09:56;96203.44;;;12.22;100.00
7662;BME280;30314;48.184;11.510;2023-09-08T05:12:27;96200.78;;;12.22;100.00
7662;BME280;30314;48.184;11.510;2023-09-08T05:14:54;96206.22;;;12.31;100.00
7662;BME280;30314;48.184;11.510;2023-09-08T05:17:24;96210.97;;;12.34;100.00
7662;BME280;30314;48.184;11.510;2023-09-08T05:19:50;96214.31;;;12.39;100.00
7662;BME280;30314;48.184;11.510;2023-09-08T05:22:17;96212.44;;;12.40;100.00
7662;BME280;30314;48.184;11.510;2023-09-08T05:24:44;96210.88;;;12.39;100.00
7662;BME280;30314;48.184;11.510;2023-09-08T05:27:12;96216.59;;;12.46;100.00
7662;BME280;30314;48.184;11.510;2023-09-08T05:29:39;96218.66;;;12.49;100.00
7662;BME280;30314;48.184;11.510;2023-09-08T05:32:06;96214.56;;;12.57;100.00
7662;BME280;30314;48.184;11.510;2023-09-08T05:34:33;96202.47;;;12.51;100.00
7662;BME280;30314;48.184;11.510;2023-09-08T05:37:00;96215.66;;;12.56;100.00
7662;BME280;30314;48.184;11.510;2023-09-08T05:39:26;96222.53;;;12.57;100.00
7662;BME280;30314;48.184;11.510;2023-09-08T05:41:53;96227.16;;;12.65;100.00
7662;BME280;30314;48.184;11.510;2023-09-08T05:44:20;96226.09;;;12.66;100.00
7662;BME280;30314;48.184;11.510;2023-09-08T05:46:47;96229.22;;;12.68;100.00
7662;BME280;30314;48.184;11.510;2023-09-08T05:49:14;96230.25;;;12.73;100.00
7662;BME280;30314;48.184;11.510;2023-09-08T05:51:41;96229.88;;;12.79;100.00
7662;BME280;30314;48.184;11.510;2023-09-08T05:54:09;96235.28;;;12.88;100.00
7662;BME280;30314;48.184;11.510;2023-09-08T05:56:37;96232.16;;;12.86;100.00
7662;BME280;30314;48.184;11.510;2023-09-08T05:59:04;96239.94;;;12.96;100.00
7662;BME280;30314;48.184;11.510;2023-09-08T06:01:32;96237.78;;;12.99;100.00
7662;BME280;30314;48.184;11.510;2023-09-08T06:04:01;96240.53;;;13.07;100.00
7662;BME280;30314;48.184;11.510;2023-09-08T06:06:29;96243.13;;;13.13;100.00
7662;BME280;30314;48.184;11.510;2023-09-08T06:08:57;96243.31;;;13.16;100.00
7662;BME280;30314;48.184;11.510;2023-09-08T06:11:24;96245.09;;;13.21;100.00
7662;BME280;30314;48.184;11.510;2023-09-08T06:13:51;96254.44;;;13.32;100.00
7662;BME280;30314;48.184;11.510;2023-09-08T06:16:20;96243.75;;;13.37;100.00
7662;BME280;30314;48.184;11.510;2023-09-08T06:18:47;96244.94;;;13.45;100.00
7662;BME280;30314;48.184;11.510;2023-09-08T06:21:17;96246.38;;;13.51;100.00
7662;BME280;30314;48.184;11.510;2023-09-08T06:23:43;96239.13;;;13.57;100.00
7662;BME280;30314;48.184;11.510;2023-09-08T06:26:12;96250.63;;;13.66;100.00
7662;BME280;30314;48.184;11.510;2023-09-08T06:28:38;96246.50;;;13.74;100.00
7662;BME280;30314;48.184;11.510;2023-09-08T06:31:08;96254.81;;;13.81;100.00
7662;BME280;30314;48.184;11.510;2023-09-08T06:33:36;96248.03;;;13.89;100.00
7662;BME280;30314;48.184;11.510;2023-09-08T06:36:04;96247.22;;;14.03;100.00
7662;BME280;30314;48.184;11.510;2023-09-08T06:38:31;96226.59;;;14.00;100.00
7662;BME280;30314;48.184;11.510;2023-09-08T06:40:59;96247.91;;;14.22;100.00
7662;BME280;30314;48.184;11.510;2023-09-08T06:43:27;96244.25;;;14.32;100.00
7662;BME280;30314;48.184;11.510;2023-09-08T06:46:02;96249.81;;;14.45;100.00
7662;BME280;30314;48.184;11.510;2023-09-08T06:48:29;96258.84;;;14.58;100.00
7662;BME280;30314;48.184;11.510;2023-09-08T06:50:56;96255.16;;;14.68;100.00
7662;BME280;30314;48.184;11.510;2023-09-08T06:53:24;96251.44;;;14.77;100.00
7662;BME280;30314;48.184;11.510;2023-09-08T06:55:51;96252.97;;;14.92;100.00
7662;BME280;30314;48.184;11.510;2023-09-08T06:58:18;96257.28;;;15.11;100.00
7662;BME280;30314;48.184;11.510;2023-09-08T07:00:46;96256.41;;;15.25;100.00
7662;BME280;30314;48.184;11.510;2023-09-08T07:03:13;96258.66;;;15.40;100.00
7662;BME280;30314;48.184;11.510;2023-09-08T07:05:40;96259.38;;;15.55;100.00
7662;BME280;30314;48.184;11.510;2023-09-08T07:08:08;96254.25;;;15.67;100.00
7662;BME280;30314;48.184;11.510;2023-09-08T07:10:34;96238.47;;;15.80;100.00
7662;BME280;30314;48.184;11.510;2023-09-08T07:13:01;96257.19;;;16.15;100.00
7662;BME280;30314;48.184;11.510;2023-09-08T07:15:28;96258.00;;;16.42;100.00
7662;BME280;30314;48.184;11.510;2023-09-08T07:17:55;96249.53;;;16.75;100.00
7662;BME280;30314;48.184;11.510;2023-09-08T07:20:22;96252.84;;;17.37;100.00
7662;BME280;30314;48.184;11.510;2023-09-08T07:22:49;96251.59;;;18.03;100.00
7662;BME280;30314;48.184;11.510;2023-09-08T07:25:15;96259.72;;;19.26;100.00
7662;BME280;30314;48.184;11.510;2023-09-08T07:27:42;96258.38;;;20.73;100.00
7662;BME280;30314;48.184;11.510;2023-09-08T07:30:09;96254.03;;;21.57;93.63
7662;BME280;30314;48.184;11.510;2023-09-08T07:32:36;96254.44;;;21.75;95.92
7662;BME280;30314;48.184;11.510;2023-09-08T07:35:03;96242.66;;;22.35;92.20
7662;BME280;30314;48.184;11.510;2023-09-08T07:37:30;96247.25;;;23.60;81.77
7662;BME280;30314;48.184;11.510;2023-09-08T07:39:57;96258.13;;;24.48;75.64
7662;BME280;30314;48.184;11.510;2023-09-08T07:42:24;96255.63;;;24.05;71.92
7662;BME280;30314;48.184;11.510;2023-09-08T07:44:53;96250.03;;;23.91;74.00
7662;BME280;30314;48.184;11.510;2023-09-08T07:47:19;96255.31;;;23.14;77.80
7662;BME280;30314;48.184;11.510;2023-09-08T07:49:47;96253.75;;;22.50;81.84
7662;BME280;30314;48.184;11.510;2023-09-08T07:52:14;96257.88;;;21.92;89.14
7662;BME280;30314;48.184;11.510;2023-09-08T07:54:41;96258.22;;;21.26;93.87
7662;BME280;30314;48.184;11.510;2023-09-08T07:57:08;96265.75;;;20.76;98.17
7662;BME280;30314;48.184;11.510;2023-09-08T07:59:34;96260.75;;;20.21;100.00
7662;BME280;30314;48.184;11.510;2023-09-08T08:02:03;96255.66;;;19.91;100.00
7662;BME280;30314;48.184;11.510;2023-09-08T08:04:30;96266.50;;;19.69;100.00
7662;BME280;30314;48.184;11.510;2023-09-08T08:06:57;96254.63;;;19.58;100.00
7662;BME280;30314;48.184;11.510;2023-09-08T08:09:23;96257.63;;;19.69;100.00
7662;BME280;30314;48.184;11.510;2023-09-08T08:11:50;96262.41;;;20.25;100.00
7662;BME280;30314;48.184;11.510;2023-09-08T08:14:17;96263.50;;;20.37;100.00
7662;BME280;30314;48.184;11.510;2023-09-08T08:16:43;96259.31;;;20.23;100.00
7662;BME280;30314;48.184;11.510;2023-09-08T08:19:10;96266.59;;;19.73;100.00
7662;BME280;30314;48.184;11.510;2023-09-08T08:21:36;96259.75;;;19.51;100.00
7662;BME280;30314;48.184;11.510;2023-09-08T08:24:04;96247.88;;;19.27;100.00
7662;BME280;30314;48.184;11.510;2023-09-08T08:26:31;96265.50;;;19.15;100.00
7662;BME280;30314;48.184;11.510;2023-09-08T08:28:59;96257.78;;;19.01;100.00
7662;BME280;30314;48.184;11.510;2023-09-08T08:31:26;96252.81;;;18.91;100.00
7662;BME280;30314;48.184;11.510;2023-09-08T08:33:53;96256.63;;;18.90;100.00
7662;BME280;30314;48.184;11.510;2023-09-08T08:36:20;96250.94;;;18.92;100.00
7662;BME280;30314;48.184;11.510;2023-09-08T08:38:47;96262.31;;;19.01;100.00
7662;BME280;30314;48.184;11.510;2023-09-08T08:41:13;96252.75;;;19.00;100.00
7662;BME280;30314;48.184;11.510;2023-09-08T08:43:41;96260.13;;;19.03;100.00
7662;BME280;30314;48.184;11.510;2023-09-08T08:46:09;96254.56;;;19.08;100.00
7662;BME280;30314;48.184;11.510;2023-09-08T08:48:36;96249.31;;;19.12;100.00
7662;BME280;30314;48.184;11.510;2023-09-08T08:51:05;96244.28;;;19.10;100.00
7662;BME280;30314;48.184;11.510;2023-09-08T08:53:32;96252.31;;;19.10;100.00
7662;BME280;30314;48.184;11.510;2023-09-08T08:56:00;96237.91;;;19.03;100.00
7662;BME280;30314;48.184;11.510;2023-09-08T08:58:28;96248.53;;;19.11;100.00
7662;BME280;30314;48.184;11.510;2023-09-08T09:00:56;96249.34;;;19.24;100.00
7662;BME280;30314;48.184;11.510;2023-09-08T09:03:26;96235.53;;;19.22;100.00
7662;BME280;30314;48.184;11.510;2023-09-08T09:05:54;96246.91;;;19.32;100.00
7662;BME280;30314;48.184;11.510;2023-09-08T09:08:22;96235.63;;;19.26;100.00
7662;BME280;30314;48.184;11.510;2023-09-08T09:10:51;96249.94;;;19.42;100.00
7662;BME280;30314;48.184;11.510;2023-09-08T09:13:18;96241.22;;;19.46;100.00
7662;BME280;30314;48.184;11.510;2023-09-08T09:15:44;96242.34;;;19.44;100.00
7662;BME280;30314;48.184;11.510;2023-09-08T09:18:13;96234.31;;;19.44;100.00
7662;BME280;30314;48.184;11.510;2023-09-08T09:20:41;96236.88;;;19.53;100.00
7662;BME280;30314;48.184;11.510;2023-09-08T09:23:30;96235.88;;;19.58;100.00
7662;BME280;30314;48.184;11.510;2023-09-08T09:25:57;96234.66;;;19.68;100.00
7662;BME280;30314;48.184;11.510;2023-09-08T09:28:28;96235.22;;;19.74;100.00
7662;BME280;30314;48.184;11.510;2023-09-08T09:30:55;96229.63;;;19.79;100.00
7662;BME280;30314;48.184;11.510;2023-09-08T09:33:22;96230.31;;;19.88;100.00
7662;BME280;30314;48.184;11.510;2023-09-08T09:35:51;96232.84;;;19.97;100.00
7662;BME280;30314;48.184;11.510;2023-09-08T09:38:19;96236.88;;;20.03;100.00
7662;BME280;30314;48.184;11.510;2023-09-08T09:40:47;96225.56;;;20.22;100.00
7662;BME280;30314;48.184;11.510;2023-09-08T09:43:16;96224.66;;;20.18;100.00
7662;BME280;30314;48.184;11.510;2023-09-08T09:45:43;96234.06;;;20.12;100.00
7662;BME280;30314;48.184;11.510;2023-09-08T09:48:10;96226.03;;;20.12;100.00
7662;BME280;30314;48.184;11.510;2023-09-08T09:50:41;96226.22;;;20.19;100.00
7662;BME280;30314;48.184;11.510;2023-09-08T09:53:14;96210.50;;;20.18;100.00
7662;BME280;30314;48.184;11.510;2023-09-08T09:55:43;96213.22;;;20.34;100.00
7662;BME280;30314;48.184;11.510;2023-09-08T09:58:11;96217.09;;;20.49;100.00
7662;BME280;30314;48.184;11.510;2023-09-08T10:00:38;96206.19;;;20.58;100.00
7662;BME280;30314;48.184;11.510;2023-09-08T10:03:13;96205.16;;;20.75;100.00
7662;BME280;30314;48.184;11.510;2023-09-08T10:05:40;96208.38;;;20.80;100.00
7662;BME280;30314;48.184;11.510;2023-09-08T10:08:06;96206.91;;;20.83;100.00
7662;BME280;30314;48.184;11.510;2023-09-08T10:10:33;96210.56;;;20.91;100.00
7662;BME280;30314;48.184;11.510;2023-09-08T10:13:06;96198.44;;;20.97;100.00
7662;BME280;30314;48.184;11.510;2023-09-08T10:15:33;96214.47;;;21.09;100.00
7662;BME280;30314;48.184;11.510;2023-09-08T10:18:04;96203.13;;;21.16;100.00
7662;BME280;30314;48.184;11.510;2023-09-08T10:20:32;96189.09;;;21.23;100.00
7662;BME280;30314;48.184;11.510;2023-09-08T10:23:10;96199.41;;;21.37;100.00
7662;BME280;30314;48.184;11.510;2023-09-08T10:25:43;96199.97;;;21.46;100.00
7662;BME280;30314;48.184;11.510;2023-09-08T10:28:12;96196.19;;;21.63;100.00
7662;BME280;30314;48.184;11.510;2023-09-08T10:33:35;96201.09;;;21.93;100.00
7662;BME280;30314;48.184;11.510;2023-09-08T10:36:03;96191.47;;;22.12;95.42
7662;BME280;30314;48.184;11.510;2023-09-08T10:38:32;96196.44;;;22.30;96.58
7662;BME280;30314;48.184;11.510;2023-09-08T10:43:46;96202.94;;;22.68;97.06
7662;BME280;30314;48.184;11.510;2023-09-08T10:46:22;96202.88;;;22.84;93.00
7662;BME280;30314;48.184;11.510;2023-09-08T10:48:49;96199.78;;;23.05;90.14
7662;BME280;30314;48.184;11.510;2023-09-08T10:51:19;96197.00;;;23.21;90.22
7662;BME280;30314;48.184;11.510;2023-09-08T10:53:49;96192.59;;;23.36;84.17
7662;BME280;30314;48.184;11.510;2023-09-08T10:56:16;96197.84;;;23.53;86.14
7662;BME280;30314;48.184;11.510;2023-09-08T10:58:48;96188.75;;;23.64;85.58
7662;BME280;30314;48.184;11.510;2023-09-08T11:01:17;96187.41;;;23.78;90.50
7662;BME280;30314;48.184;11.510;2023-09-08T11:03:46;96188.53;;;24.00;88.72
7662;BME280;30314;48.184;11.510;2023-09-08T11:06:16;96190.25;;;24.16;87.58
7662;BME280;30314;48.184;11.510;2023-09-08T11:08:45;96191.03;;;24.16;88.08
7662;BME280;30314;48.184;11.510;2023-09-08T11:11:13;96195.28;;;24.17;87.20
7662;BME280;30314;48.184;11.510;2023-09-08T11:13:41;96198.34;;;24.16;83.38
7662;BME280;30314;48.184;11.510;2023-09-08T11:16:08;96203.59;;;24.05;81.65
7662;BME280;30314;48.184;11.510;2023-09-08T11:18:35;96193.31;;;23.87;82.37
7662;BME280;30314;48.184;11.510;2023-09-08T11:21:08;96199.06;;;23.86;84.46
7662;BME280;30314;48.184;11.510;2023-09-08T11:23:36;96202.22;;;23.91;88.30
7662;BME280;30314;48.184;11.510;2023-09-08T11:26:03;96196.97;;;23.99;91.49
7662;BME280;30314;48.184;11.510;2023-09-08T11:28:30;96197.16;;;24.13;85.22
7662;BME280;30314;48.184;11.510;2023-09-08T11:30:58;96196.47;;;24.20;84.95
7662;BME280;30314;48.184;11.510;2023-09-08T11:33:24;96195.75;;;24.23;86.61
7662;BME280;30314;48.184;11.510;2023-09-08T11:35:53;96189.88;;;24.17;84.85
7662;BME280;30314;48.184;11.510;2023-09-08T11:38:26;96199.53;;;24.18;78.60
7662;BME280;30314;48.184;11.510;2023-09-08T11:40:57;96197.25;;;24.20;81.00
7662;BME280;30314;48.184;11.510;2023-09-08T11:43:27;96190.25;;;24.16;82.29
7662;BME280;30314;48.184;11.510;2023-09-08T11:45:55;96185.50;;;24.05;82.11
7662;BME280;30314;48.184;11.510;2023-09-08T11:48:24;96189.19;;;23.93;83.79
7662;BME280;30314;48.184;11.510;2023-09-08T11:50:54;96186.50;;;23.93;85.30
7662;BME280;30314;48.184;11.510;2023-09-08T11:53:22;96182.88;;;23.82;81.40
7662;BME280;30314;48.184;11.510;2023-09-08T11:55:49;96177.38;;;23.75;82.65
7662;BME280;30314;48.184;11.510;2023-09-08T11:58:18;96183.16;;;23.77;86.07
7662;BME280;30314;48.184;11.510;2023-09-08T12:00:45;96180.78;;;23.72;85.92
7662;BME280;30314;48.184;11.510;2023-09-08T12:03:15;96189.63;;;23.69;87.16
7662;BME280;30314;48.184;11.510;2023-09-08T12:05:52;96178.84;;;23.69;85.54
7662;BME280;30314;48.184;11.510;2023-09-08T12:08:19;96181.47;;;23.65;84.96
7662;BME280;30314;48.184;11.510;2023-09-08T12:10:46;96180.31;;;23.66;86.27
7662;BME280;30314;48.184;11.510;2023-09-08T12:13:20;96178.31;;;23.59;89.23
7662;BME280;30314;48.184;11.510;2023-09-08T12:15:47;96183.69;;;23.59;88.28
7662;BME280;30314;48.184;11.510;2023-09-08T12:18:14;96170.78;;;23.45;87.01
7662;BME280;30314;48.184;11.510;2023-09-08T12:20:43;96174.72;;;23.51;91.48
7662;BME280;30314;48.184;11.510;2023-09-08T12:23:21;96175.56;;;23.56;91.99
7662;BME280;30314;48.184;11.510;2023-09-08T12:25:49;96174.78;;;23.55;91.31
7662;BME280;30314;48.184;11.510;2023-09-08T12:28:20;96176.34;;;23.56;87.90
7662;BME280;30314;48.184;11.510;2023-09-08T12:30:51;96168.56;;;23.51;86.51
7662;BME280;30314;48.184;11.510;2023-09-08T12:33:19;96163.91;;;23.48;88.03
7662;BME280;30314;48.184;11.510;2023-09-08T12:35:47;96165.34;;;23.42;88.25
7662;BME280;30314;48.184;11.510;2023-09-08T12:38:15;96162.94;;;23.36;86.94
7662;BME280;30314;48.184;11.510;2023-09-08T12:40:41;96171.56;;;23.46;89.15
7662;BME280;30314;48.184;11.510;2023-09-08T12:43:10;96163.91;;;23.48;90.70
7662;BME280;30314;48.184;11.510;2023-09-08T12:45:56;96162.34;;;23.47;89.00
7662;BME280;30314;48.184;11.510;2023-09-08T12:48:23;96164.38;;;23.54;89.23
7662;BME280;30314;48.184;11.510;2023-09-08T12:50:50;96170.16;;;23.56;91.77
7662;BME280;30314;48.184;11.510;2023-09-08T12:53:17;96163.28;;;23.58;87.81
7662;BME280;30314;48.184;11.510;2023-09-08T12:55:48;96164.00;;;23.55;90.19
7662;BME280;30314;48.184;11.510;2023-09-08T12:58:16;96158.56;;;23.51;88.66
7662;BME280;30314;48.184;11.510;2023-09-08T13:00:43;96157.00;;;23.50;90.87
7662;BME280;30314;48.184;11.510;2023-09-08T13:03:10;96157.78;;;23.51;88.33
7662;BME280;30314;48.184;11.510;2023-09-08T13:05:37;96159.38;;;23.56;89.54